Time;durP1;ratioP1;P1;durP2;ratioP2;P2;SDS_P1;SDS_P2;PMS_P1;PMS_P2;Temp;Humidity;BMP_temperature;BMP_pressure;BME280_temperature;BME280_humidity;BME280_pressure;Samples;Min_cycle;Max_cycle;Signal;HPM_P1;HPM_P2
2021/05/31 00:00:54;;;;;;;3.47;1.10;;;;;;;27.78;27.16;97110.75;4981482;28;20046;-36
2021/05/31 00:03:20;;;;;;;2.40;0.68;;;;;;;27.78;27.27;97110.75;4963170;28;20038;-37
2021/05/31 00:05:45;;;;;;;1.55;0.70;;;;;;;27.78;27.23;97105.47;4963542;28;20739;-32
2021/05/31 00:08:11;;;;;;;1.35;1.00;;;;;;;27.77;27.27;97109.06;4983111;28;20030;-37
2021/05/31 00:10:36;;;;;;;1.25;0.93;;;;;;;27.77;27.31;97093.25;4982076;28;20523;-35
2021/05/31 00:13:01;;;;;;;1.33;0.90;;;;;;;27.78;27.30;97097.56;4978113;28;20042;-34
2021/05/31 00:15:28;;;;;;;3.67;1.10;;;;;;;27.77;27.32;97095.88;4983862;28;20041;-35
2021/05/31 00:17:54;;;;;;;1.63;0.90;;;;;;;27.78;27.22;97095.81;4980555;28;20030;-39
2021/05/31 00:20:19;;;;;;;1.40;0.95;;;;;;;27.77;27.26;97087.97;4982595;28;20150;-35
2021/05/31 00:22:45;;;;;;;3.30;0.90;;;;;;;27.78;27.26;97084.41;4979517;28;20026;-35
2021/05/31 00:25:11;;;;;;;2.47;0.90;;;;;;;27.77;27.41;97082.72;4979863;28;20030;-37
2021/05/31 00:27:37;;;;;;;2.70;1.00;;;;;;;27.75;27.29;97080.16;4976181;28;20573;-37
2021/05/31 00:30:03;;;;;;;0.70;0.60;;;;;;;27.72;27.37;97069.81;4978100;28;20038;-31
2021/05/31 00:32:29;;;;;;;2.08;0.80;;;;;;;27.76;27.37;97070.47;4981818;28;20046;-38
2021/05/31 00:34:54;;;;;;;0.82;0.65;;;;;;;27.75;27.33;97074.03;4979444;28;20030;-37
2021/05/31 00:37:19;;;;;;;1.92;1.00;;;;;;;27.75;27.26;97069.63;4979050;28;20034;-37
2021/05/31 00:39:45;;;;;;;1.00;0.80;;;;;;;27.75;27.29;97068.78;4984467;28;20065;-35
2021/05/31 00:42:10;;;;;;;1.73;0.88;;;;;;;27.75;27.39;97066.13;4976712;28;20038;-39
2021/05/31 00:44:36;;;;;;;1.30;0.80;;;;;;;27.74;27.44;97064.44;4978526;28;20022;-36
2021/05/31 00:47:01;;;;;;;0.60;0.60;;;;;;;27.73;27.41;97065.41;4983134;28;20168;-37
2021/05/31 00:49:28;;;;;;;1.73;0.80;;;;;;;27.73;27.33;97066.22;4981672;28;20064;-35
2021/05/31 00:51:53;;;;;;;2.03;0.77;;;;;;;27.73;27.39;97063.59;4974272;28;20030;-40
2021/05/31 00:54:19;;;;;;;2.60;0.95;;;;;;;27.73;27.41;97055.69;4978032;28;20037;-35
2021/05/31 00:56:45;;;;;;;0.85;0.65;;;;;;;27.73;27.36;97055.69;4978321;28;20030;-35
2021/05/31 00:59:11;;;;;;;1.10;0.70;;;;;;;27.74;27.32;97056.56;4968989;28;20735;-36
2021/05/31 01:01:36;;;;;;;0.85;0.70;;;;;;;27.73;27.49;97054.88;4980654;28;20050;-36
2021/05/31 01:04:02;;;;;;;2.00;0.90;;;;;;;27.73;27.42;97049.59;4978192;28;20089;-33
2021/05/31 01:06:31;;;;;;;0.85;0.70;;;;;;;27.73;27.42;97049.59;4978806;28;20049;-39
2021/05/31 01:09:05;;;;;;;1.60;0.70;;;;;;;27.72;27.32;97048.72;4981967;28;20765;-37
2021/05/31 01:11:52;;;;;;;1.27;0.85;;;;;;;27.73;27.33;97052.22;4965821;28;20045;-36
2021/05/31 01:14:40;;;;;;;0.88;0.70;;;;;;;27.71;27.47;97049.69;4985248;28;20052;-40
2021/05/31 01:17:23;;;;;;;1.15;0.77;;;;;;;27.71;27.40;97054.94;4980564;28;20497;-38
2021/05/31 01:19:49;;;;;;;2.67;0.80;;;;;;;27.69;27.48;97043.63;4976122;28;20857;-35
2021/05/31 01:22:14;;;;;;;1.02;0.70;;;;;;;27.69;27.38;97043.63;4981668;28;20041;-39
2021/05/31 01:25:05;;;;;;;3.88;0.65;;;;;;;27.69;27.33;97048.06;4980020;28;20061;-35
2021/05/31 01:27:59;;;;;;;0.98;0.73;;;;;;;27.68;27.45;97039.31;4977386;28;20040;-34
2021/05/31 01:30:25;;;;;;;2.15;1.00;;;;;;;27.68;27.43;97041.13;4977181;28;20670;-39
2021/05/31 01:32:53;;;;;;;1.30;0.75;;;;;;;27.68;27.44;97039.31;4988714;28;20454;-34
2021/05/31 01:35:25;;;;;;;0.65;0.50;;;;;;;27.69;27.38;97040.16;4955331;28;20228;-32
2021/05/31 01:37:51;;;;;;;0.50;0.50;;;;;;;27.65;27.34;97027.19;4970619;28;20048;-33
2021/05/31 01:40:16;;;;;;;0.88;0.77;;;;;;;27.68;27.47;97041.13;4969216;28;20536;-37
2021/05/31 01:42:41;;;;;;;1.33;0.50;;;;;;;27.68;27.40;97030.59;4961221;28;20041;-36
2021/05/31 01:45:08;;;;;;;2.15;0.70;;;;;;;27.67;27.49;97029.72;4978323;28;20021;-39
2021/05/31 01:47:33;;;;;;;1.27;0.60;;;;;;;27.67;27.34;97028.88;4964410;28;20026;-37
2021/05/31 01:49:59;;;;;;;2.70;0.70;;;;;;;27.68;27.45;97025.31;4960370;28;20026;-38
2021/05/31 01:52:25;;;;;;;1.05;0.60;;;;;;;27.65;27.38;97024.53;4978563;28;20515;-39
2021/05/31 01:54:52;;;;;;;1.15;0.77;;;;;;;27.65;27.44;97027.19;4976027;28;20042;-37
2021/05/31 01:57:18;;;;;;;1.45;0.70;;;;;;;27.65;27.44;97024.53;4977023;28;20032;-36
2021/05/31 01:59:43;;;;;;;1.75;0.80;;;;;;;27.68;27.44;97022.69;4970960;28;20805;-34
2021/05/31 02:02:09;;;;;;;2.35;1.40;;;;;;;27.62;27.36;97016.81;4960352;28;20555;-37
2021/05/31 02:04:34;;;;;;;1.75;1.20;;;;;;;27.67;27.47;97013.06;4979324;28;20052;-37
2021/05/31 02:07:02;;;;;;;1.70;0.90;;;;;;;27.65;27.50;97016.66;4977204;28;20053;-38
2021/05/31 02:09:27;;;;;;;1.30;0.70;;;;;;;27.67;27.57;97020.97;4983008;28;20034;-34
2021/05/31 02:12:06;;;;;;;1.27;0.80;;;;;;;27.65;27.55;97016.66;4978805;28;20331;-40
2021/05/31 02:14:54;;;;;;;1.23;0.77;;;;;;;27.67;27.48;97016.56;4979192;28;20034;-36
2021/05/31 02:17:35;;;;;;;1.65;0.80;;;;;;;27.65;27.39;97018.44;4977514;28;20335;-36
2021/05/31 02:20:06;;;;;;;1.52;0.88;;;;;;;27.65;27.52;97015.81;4977566;28;20038;-37
2021/05/31 02:22:33;;;;;;;0.80;0.70;;;;;;;27.64;27.52;97008.81;4978087;28;20030;-32
2021/05/31 02:24:58;;;;;;;1.40;0.60;;;;;;;27.64;27.44;97012.31;4962540;28;21014;-39
2021/05/31 02:27:24;;;;;;;2.08;0.80;;;;;;;27.64;27.50;97011.47;4976428;28;20027;-38
2021/05/31 02:29:49;;;;;;;1.10;0.85;;;;;;;27.63;27.59;97002.72;4980173;28;20041;-39
2021/05/31 02:32:15;;;;;;;1.48;0.75;;;;;;;27.63;27.56;97009.78;4979605;28;20060;-40
2021/05/31 02:34:40;;;;;;;2.13;0.70;;;;;;;27.63;27.62;97013.25;4977413;28;20476;-39
2021/05/31 02:37:07;;;;;;;1.45;0.70;;;;;;;27.61;27.47;97012.50;4957264;28;20025;-36
2021/05/31 02:39:32;;;;;;;0.95;0.70;;;;;;;27.61;27.48;97020.38;4962408;28;20065;-34
2021/05/31 02:41:58;;;;;;;1.67;0.75;;;;;;;27.62;27.49;97022.06;4978504;28;20034;-36
2021/05/31 02:44:23;;;;;;;0.82;0.63;;;;;;;27.62;27.47;97024.72;4976305;28;20030;-35
2021/05/31 02:46:48;;;;;;;1.58;0.65;;;;;;;27.62;27.53;97021.25;4976539;28;20037;-33
2021/05/31 02:49:14;;;;;;;0.93;0.63;;;;;;;27.62;27.57;97021.25;4973685;28;20030;-36
2021/05/31 02:51:39;;;;;;;0.50;0.50;;;;;;;27.62;27.56;97015.97;4979493;28;20064;-39
2021/05/31 02:54:06;;;;;;;1.98;0.77;;;;;;;27.61;27.47;97025.66;4981664;28;20198;-35
2021/05/31 02:56:32;;;;;;;1.00;0.60;;;;;;;27.61;27.61;97017.75;4981035;28;20038;-39
2021/05/31 02:58:57;;;;;;;0.80;0.80;;;;;;;27.62;27.60;97016.81;4979563;28;20034;-39
2021/05/31 03:01:22;;;;;;;2.20;0.73;;;;;;;27.61;27.80;97009.84;4980385;28;20049;-37
2021/05/31 03:03:48;;;;;;;0.93;0.65;;;;;;;27.61;27.47;97009.84;4976886;28;20124;-39
2021/05/31 03:06:13;;;;;;;1.45;0.50;;;;;;;27.60;27.44;97010.78;4972582;28;20041;-37
2021/05/31 03:08:38;;;;;;;0.90;0.90;;;;;;;27.61;27.48;97020.38;4979424;28;20033;-37
2021/05/31 03:11:04;;;;;;;1.35;0.70;;;;;;;27.61;27.51;97014.28;4980630;28;20033;-37
2021/05/31 03:13:29;;;;;;;1.40;0.60;;;;;;;27.61;27.52;97014.28;4980390;28;20484;-35
2021/05/31 03:15:55;;;;;;;0.65;0.65;;;;;;;27.60;27.61;97020.44;4974925;28;20047;-37
2021/05/31 03:18:20;;;;;;;1.77;0.80;;;;;;;27.59;27.58;97019.59;4985028;28;20030;-37
2021/05/31 03:20:46;;;;;;;1.67;0.75;;;;;;;27.59;27.45;97019.59;4979701;28;20065;-37
2021/05/31 03:23:11;;;;;;;0.85;0.80;;;;;;;27.59;27.44;97024.88;4981371;28;20025;-35
2021/05/31 03:25:36;;;;;;;1.35;0.63;;;;;;;27.58;27.51;97010.00;4958773;28;20033;-34
2021/05/31 03:28:02;;;;;;;1.50;0.80;;;;;;;27.58;27.56;97020.53;4981042;28;20049;-35
2021/05/31 03:30:28;;;;;;;1.35;0.60;;;;;;;27.58;27.50;97017.88;4979803;28;21172;-35
2021/05/31 03:32:53;;;;;;;2.55;0.80;;;;;;;27.57;27.43;97016.19;4981580;28;20038;-34
2021/05/31 03:35:19;;;;;;;2.15;0.60;;;;;;;27.57;27.60;97016.19;4983049;28;20097;-35
2021/05/31 03:37:44;;;;;;;1.50;0.70;;;;;;;27.57;27.43;97021.47;4979188;28;20014;-38
2021/05/31 03:40:10;;;;;;;3.13;0.80;;;;;;;27.56;27.48;97017.16;4982607;28;20669;-40
2021/05/31 03:42:36;;;;;;;1.15;0.70;;;;;;;27.56;27.42;97017.16;4979843;28;20613;-37
2021/05/31 03:45:02;;;;;;;1.05;0.60;;;;;;;27.57;27.56;97024.09;4986237;28;20047;-38
2021/05/31 03:47:28;;;;;;;1.20;0.70;;;;;;;27.56;27.57;97025.03;4981517;28;20164;-34
2021/05/31 03:49:53;;;;;;;3.22;0.77;;;;;;;27.57;27.45;97020.63;4980620;28;20034;-36
2021/05/31 03:52:19;;;;;;;1.70;1.00;;;;;;;27.56;27.53;97019.78;4978559;28;20022;-39
2021/05/31 03:54:44;;;;;;;0.95;0.60;;;;;;;27.55;27.58;97015.44;4979472;28;20177;-32
2021/05/31 03:57:09;;;;;;;0.82;0.70;;;;;;;27.56;27.52;97017.16;4978586;28;20022;-41
2021/05/31 03:59:35;;;;;;;0.50;0.50;;;;;;;27.54;27.52;97019.03;4984894;28;20030;-40
2021/05/31 04:02:01;;;;;;;0.60;0.60;;;;;;;27.56;27.50;97026.81;4979854;28;20046;-36
2021/05/31 04:04:26;;;;;;;1.08;0.80;;;;;;;27.55;27.54;97028.63;4961724;28;20037;-37
2021/05/31 04:07:21;;;;;;;9.02;1.27;;;;;;;27.54;27.45;97024.28;4981117;28;20030;-37
2021/05/31 04:12:21;;;;;;;4.47;1.00;;;;;;;27.54;27.51;97037.44;4982072;28;20121;-33
2021/05/31 04:14:46;;;;;;;1.88;0.70;;;;;;;27.53;27.57;97033.97;4980988;28;20037;-39
2021/05/31 04:17:12;;;;;;;1.10;0.80;;;;;;;27.53;27.59;97027.84;4978789;28;20033;-39
2021/05/31 04:19:37;;;;;;;2.20;1.10;;;;;;;27.52;27.55;97037.53;4979430;28;22599;-36
2021/05/31 04:22:02;;;;;;;1.88;0.85;;;;;;;27.53;27.61;97033.97;4979174;28;20460;-38
2021/05/31 04:24:28;;;;;;;4.88;1.00;;;;;;;27.53;27.52;97033.09;4982605;28;20030;-32
2021/05/31 04:26:53;;;;;;;1.27;0.70;;;;;;;27.54;27.50;97034.81;4983035;28;20752;-38
2021/05/31 04:29:19;;;;;;;0.95;0.55;;;;;;;27.53;27.53;97025.19;4985548;28;20089;-38
2021/05/31 04:31:44;;;;;;;0.60;0.60;;;;;;;27.53;27.59;97033.09;4978923;28;20547;-38
2021/05/31 04:34:10;;;;;;;1.00;0.65;;;;;;;27.53;27.55;97030.47;4979856;28;20324;-39
2021/05/31 04:36:35;;;;;;;1.92;0.80;;;;;;;27.53;27.48;97033.09;4981048;28;20119;-38
2021/05/31 04:39:03;;;;;;;0.90;0.73;;;;;;;27.52;27.42;97028.78;4982432;28;20041;-38
2021/05/31 04:41:29;;;;;;;1.33;0.47;;;;;;;27.52;27.57;97041.94;4975617;28;20144;-39
2021/05/31 04:43:55;;;;;;;1.25;0.57;;;;;;;27.52;27.48;97026.16;4982219;28;20041;-36
2021/05/31 04:46:20;;;;;;;0.95;0.60;;;;;;;27.52;27.53;97027.00;4981146;28;20054;-39
2021/05/31 04:48:45;;;;;;;2.03;0.60;;;;;;;27.53;27.72;97033.09;4977354;28;20041;-35
2021/05/31 04:51:11;;;;;;;1.13;0.70;;;;;;;27.53;27.61;97027.84;4977856;28;20030;-35
2021/05/31 04:53:36;;;;;;;0.85;0.50;;;;;;;27.53;27.56;97022.56;4982984;28;20041;-36
2021/05/31 04:56:04;;;;;;;1.55;0.50;;;;;;;27.52;27.68;97021.75;4978698;28;20027;-32
2021/05/31 04:58:29;;;;;;;1.10;0.60;;;;;;;27.53;27.67;97038.38;4983616;28;20029;-38
2021/05/31 05:00:55;;;;;;;1.60;0.80;;;;;;;27.53;27.69;97025.19;4978625;28;20926;-37
2021/05/31 05:03:20;;;;;;;0.65;0.50;;;;;;;27.52;27.84;97031.41;4977867;28;20034;-32
2021/05/31 05:05:46;;;;;;;0.75;0.50;;;;;;;27.53;27.77;97033.09;4979651;28;20041;-37
2021/05/31 05:08:12;;;;;;;0.60;0.60;;;;;;;27.52;27.79;97036.69;4974071;28;20477;-36
2021/05/31 05:10:37;;;;;;;0.50;0.50;;;;;;;27.52;27.89;97037.53;4983039;28;20034;-39
2021/05/31 05:13:02;;;;;;;1.50;0.40;;;;;;;27.52;27.78;97041.94;4982231;28;20018;-37
2021/05/31 05:15:30;;;;;;;1.30;0.60;;;;;;;27.51;27.82;97045.50;4980548;28;20034;-36
2021/05/31 05:17:56;;;;;;;1.40;0.47;;;;;;;27.48;27.90;97035.16;4982271;28;20022;-39
2021/05/31 05:20:23;;;;;;;0.40;0.40;;;;;;;27.51;27.77;97035.81;4975936;28;20080;-34
2021/05/31 05:22:48;;;;;;;0.60;0.50;;;;;;;27.50;27.82;97039.38;4978514;28;20030;-35
2021/05/31 05:25:14;;;;;;;1.85;0.47;;;;;;;27.51;27.90;97035.81;4979490;28;20034;-38
2021/05/31 05:27:41;;;;;;;0.73;0.60;;;;;;;27.52;27.86;97036.69;4976478;28;20108;-33
2021/05/31 05:30:07;;;;;;;0.50;0.38;;;;;;;27.52;27.89;97031.41;4979327;28;20080;-36
2021/05/31 05:32:34;;;;;;;0.85;0.50;;;;;;;27.52;27.97;97034.91;4975960;28;20042;-34
2021/05/31 05:35:09;;;;;;;0.77;0.50;;;;;;;27.53;27.87;97039.22;4979043;28;20037;-32
2021/05/31 05:37:42;;;;;;;1.00;0.32;;;;;;;27.53;27.98;97033.97;4972570;28;20049;-37
2021/05/31 05:43:25;;;;;;;0.47;0.47;;;;;;;27.53;27.97;97033.97;4944879;28;20479;-40
2021/05/31 05:48:28;;;;;;;0.75;0.50;;;;;;;27.54;27.87;97037.44;4977862;28;20601;-39
2021/05/31 05:51:04;;;;;;;0.28;0.28;;;;;;;27.55;27.98;97038.28;4973095;28;20037;-36
2021/05/31 05:53:33;;;;;;;0.70;0.60;;;;;;;27.55;27.92;97033.03;4979418;28;20379;-34
2021/05/31 05:55:58;;;;;;;0.57;0.50;;;;;;;27.54;27.94;97029.56;4975896;28;20584;-35
2021/05/31 05:58:27;;;;;;;0.60;0.40;;;;;;;27.54;27.87;97026.94;4980372;28;20022;-36
2021/05/31 06:00:53;;;;;;;0.82;0.50;;;;;;;27.54;27.85;97032.19;4979199;28;20072;-39
2021/05/31 06:03:18;;;;;;;0.30;0.30;;;;;;;27.55;27.92;97041.78;4979292;28;20030;-34
2021/05/31 06:05:44;;;;;;;0.75;0.50;;;;;;;27.55;28.01;97043.53;4979905;28;20038;-37
2021/05/31 06:08:09;;;;;;;0.90;0.30;;;;;;;27.53;28.04;97044.50;4978768;28;20033;-36
2021/05/31 06:10:35;;;;;;;1.15;0.57;;;;;;;27.54;28.01;97034.81;4983806;28;20037;-40
2021/05/31 06:13:00;;;;;;;0.82;0.50;;;;;;;27.56;28.05;97039.97;4980786;28;20088;-35
2021/05/31 06:15:25;;;;;;;0.60;0.47;;;;;;;27.55;28.01;97044.41;4977071;28;20032;-38
2021/05/31 06:17:51;;;;;;;0.73;0.45;;;;;;;27.55;27.89;97044.41;4983510;28;20064;-39
2021/05/31 06:20:16;;;;;;;0.63;0.60;;;;;;;27.56;27.97;97048.72;4979328;28;20508;-34
2021/05/31 06:22:41;;;;;;;0.75;0.40;;;;;;;27.56;28.05;97043.47;4976238;28;20038;-37
2021/05/31 06:25:08;;;;;;;0.70;0.43;;;;;;;27.54;28.10;97040.09;4979294;28;20056;-38
2021/05/31 06:27:34;;;;;;;0.70;0.40;;;;;;;27.55;28.06;97044.41;4977168;28;20026;-38
2021/05/31 06:29:59;;;;;;;0.65;0.50;;;;;;;27.56;28.07;97038.19;4970242;28;20092;-36
2021/05/31 06:32:24;;;;;;;0.73;0.50;;;;;;;27.56;27.92;97038.19;4974227;28;20046;-33
2021/05/31 06:34:50;;;;;;;0.50;0.50;;;;;;;27.55;27.69;97025.97;4977378;28;20033;-37
2021/05/31 06:37:15;;;;;;;2.90;0.90;;;;;;;27.50;27.70;97020.97;4959601;28;20021;-40
2021/05/31 06:39:41;;;;;;;0.85;0.60;;;;;;;27.56;27.71;97030.31;4977203;28;20030;-37
2021/05/31 06:42:06;;;;;;;9.05;1.45;;;;;;;27.55;27.80;97025.97;4970624;28;21881;-35
2021/05/31 06:44:32;;;;;;;8.63;1.17;;;;;;;27.57;27.70;97033.78;4973387;28;20030;-38
2021/05/31 06:46:57;;;;;;;4.15;0.90;;;;;;;27.57;27.74;97029.34;4975389;28;20037;-38
2021/05/31 06:49:23;;;;;;;2.42;1.05;;;;;;;27.57;27.53;97024.09;4973787;28;20105;-38
2021/05/31 06:51:49;;;;;;;2.45;1.10;;;;;;;27.58;27.45;97017.88;4976728;28;20437;-31
2021/05/31 06:54:14;;;;;;;1.70;0.82;;;;;;;27.59;27.44;97022.25;4975615;28;20035;-37
2021/05/31 06:56:39;;;;;;;5.05;0.93;;;;;;;27.60;27.46;97018.66;4977691;28;20086;-35
2021/05/31 06:59:05;;;;;;;4.28;1.00;;;;;;;27.61;27.48;97023.03;4987649;28;20037;-32
2021/05/31 07:01:30;;;;;;;4.35;1.58;;;;;;;27.63;27.50;97028.19;4973539;28;20061;-34
2021/05/31 07:03:56;;;;;;;15.60;2.15;;;;;;;27.63;27.23;97026.44;4974767;28;20042;-33
2021/05/31 07:06:21;;;;;;;8.73;1.77;;;;;;;27.63;26.60;97028.19;4971991;28;20389;-33
2021/05/31 07:08:47;;;;;;;8.13;1.70;;;;;;;27.63;26.33;97022.94;4973992;28;20068;-34
2021/05/31 07:11:15;;;;;;;3.22;1.60;;;;;;;27.62;26.17;97031.78;4966395;28;20045;-35
2021/05/31 07:13:41;;;;;;;4.60;1.73;;;;;;;27.59;25.99;97032.78;4972308;28;20108;-38
2021/05/31 07:16:08;;;;;;;3.15;1.70;;;;;;;27.60;25.78;97028.34;4973721;28;20259;-35
2021/05/31 07:18:33;;;;;;;4.63;1.75;;;;;;;27.59;25.73;97031.91;4972378;28;20030;-32
2021/05/31 07:21:04;;;;;;;5.05;1.52;;;;;;;27.59;25.73;97027.50;4971287;28;20048;-36
2021/05/31 07:23:29;;;;;;;3.38;1.77;;;;;;;27.58;25.69;97020.53;4972436;28;20065;-41
2021/05/31 07:25:54;;;;;;;2.00;1.48;;;;;;;27.57;25.57;97026.72;4969389;28;20068;-38
2021/05/31 07:28:20;;;;;;;2.75;1.73;;;;;;;27.57;25.64;97029.34;4973672;28;20027;-35
2021/05/31 07:30:45;;;;;;;4.60;1.30;;;;;;;27.57;25.54;97028.53;4974068;28;20558;-36
2021/05/31 07:33:13;;;;;;;3.95;1.33;;;;;;;27.56;25.57;97027.66;4975219;28;20164;-35
2021/05/31 07:35:38;;;;;;;3.45;1.60;;;;;;;27.57;25.60;97024.09;4971664;28;20708;-37
2021/05/31 07:38:04;;;;;;;2.92;1.17;;;;;;;27.56;25.54;97027.66;4972955;28;20149;-39
2021/05/31 07:40:29;;;;;;;2.63;1.23;;;;;;;27.57;25.63;97029.34;4974959;28;20992;-37
2021/05/31 07:42:55;;;;;;;2.53;1.40;;;;;;;27.58;25.70;97031.03;4946988;28;20306;-35
2021/05/31 07:45:20;;;;;;;2.72;1.50;;;;;;;27.58;25.51;97031.03;4972449;28;20034;-35
2021/05/31 07:47:46;;;;;;;3.33;1.30;;;;;;;27.58;25.60;97033.69;4976943;28;20026;-36
2021/05/31 07:50:13;;;;;;;4.63;1.75;;;;;;;27.59;25.42;97031.91;4974931;28;20755;-36
2021/05/31 07:52:39;;;;;;;4.03;1.30;;;;;;;27.58;25.47;97025.78;4974732;28;20361;-31
2021/05/31 07:55:07;;;;;;;2.20;1.40;;;;;;;27.59;25.46;97022.25;4973528;28;20038;-35
2021/05/31 07:57:33;;;;;;;5.50;1.70;;;;;;;27.59;25.29;97022.25;4972840;28;20566;-38
2021/05/31 07:59:58;;;;;;;3.58;1.48;;;;;;;27.55;25.33;97010.19;4974704;28;20041;-36
2021/05/31 08:02:24;;;;;;;1.90;1.27;;;;;;;27.60;25.26;97012.53;4974403;28;20049;-38
2021/05/31 08:04:49;;;;;;;1.75;1.08;;;;;;;27.60;25.29;97018.66;4976917;28;20108;-37
2021/05/31 08:07:15;;;;;;;3.05;1.33;;;;;;;27.61;25.09;97015.13;4979588;28;20902;-32
2021/05/31 08:09:40;;;;;;;2.25;1.15;;;;;;;27.62;25.45;97015.97;4977350;28;20025;-39
2021/05/31 08:12:06;;;;;;;3.70;1.45;;;;;;;27.62;25.06;97021.25;4979146;28;20030;-31
2021/05/31 08:14:32;;;;;;;2.97;1.65;;;;;;;27.62;24.96;97015.97;4980937;28;20088;-34
2021/05/31 08:16:57;;;;;;;3.03;1.30;;;;;;;27.63;24.99;97008.00;4980469;28;20534;-34
2021/05/31 08:19:25;;;;;;;2.10;1.30;;;;;;;27.63;25.18;97008.00;4980072;28;20045;-37
2021/05/31 08:21:51;;;;;;;2.42;1.35;;;;;;;27.63;24.96;97008.00;4979071;28;20077;-32
2021/05/31 08:24:18;;;;;;;2.90;1.40;;;;;;;27.64;24.95;97014.94;4979152;28;21067;-41
2021/05/31 08:26:44;;;;;;;2.75;1.13;;;;;;;27.64;24.78;97003.56;4982553;28;20034;-37
2021/05/31 08:29:10;;;;;;;8.80;1.88;;;;;;;27.58;21.99;97004.72;4983254;28;20096;-32
2021/05/31 08:31:35;;;;;;;12.43;1.90;;;;;;;27.51;21.57;97006.03;4981064;28;20057;-31
2021/05/31 08:34:01;;;;;;;3.50;1.63;;;;;;;27.45;20.75;97009.00;4963326;28;20169;-31
2021/05/31 08:36:26;;;;;;;2.38;1.85;;;;;;;27.33;18.87;97010.53;4971166;28;20041;-37
2021/05/31 08:38:56;;;;;;;2.92;1.55;;;;;;;27.24;18.86;97011.91;4978874;28;20022;-36
2021/05/31 08:41:22;;;;;;;7.03;1.40;;;;;;;27.13;19.29;97013.38;4980736;28;20745;-35
2021/05/31 08:43:47;;;;;;;4.50;1.75;;;;;;;27.09;19.84;97018.88;4996843;28;20068;-40
2021/05/31 08:46:13;;;;;;;14.57;1.90;;;;;;;27.06;20.13;97017.25;4982501;28;20517;-36
2021/05/31 08:48:38;;;;;;;10.05;2.00;;;;;;;27.06;20.50;97014.63;4979680;28;20485;-37
2021/05/31 08:51:04;;;;;;;2.97;1.80;;;;;;;27.07;20.87;97008.44;4964495;28;20612;-35
2021/05/31 08:53:29;;;;;;;5.65;1.48;;;;;;;27.07;21.24;97021.59;4978767;28;20030;-36
2021/05/31 08:55:54;;;;;;;4.97;1.55;;;;;;;27.10;21.43;97010.91;4975030;28;20127;-39
2021/05/31 08:58:20;;;;;;;3.25;1.50;;;;;;;27.12;21.62;97009.03;4978543;28;20026;-37
2021/05/31 09:00:45;;;;;;;2.08;1.42;;;;;;;27.16;21.95;97008.84;4978033;28;20464;-37
2021/05/31 09:03:11;;;;;;;5.75;1.60;;;;;;;27.17;22.07;97014.03;4979949;28;20030;-34
2021/05/31 09:05:37;;;;;;;1.95;1.38;;;;;;;27.20;22.21;96999.88;4982201;28;20539;-32
2021/05/31 09:08:08;;;;;;;2.05;1.40;;;;;;;27.23;22.46;97005.78;4976077;28;20433;-35
2021/05/31 09:10:39;;;;;;;2.25;1.40;;;;;;;27.26;22.62;97007.41;4982263;28;20037;-37
2021/05/31 09:13:05;;;;;;;4.10;1.70;;;;;;;27.28;22.64;97013.44;4978002;28;20073;-37
2021/05/31 09:15:30;;;;;;;3.40;1.67;;;;;;;27.31;22.78;97001.91;4981562;28;20042;-38
2021/05/31 09:17:56;;;;;;;2.90;1.60;;;;;;;27.34;22.97;96997.31;4978926;28;20600;-38
2021/05/31 09:20:22;;;;;;;3.22;1.50;;;;;;;27.36;23.16;97010.38;4955214;28;20661;-32
2021/05/31 09:22:48;;;;;;;2.55;1.50;;;;;;;27.38;23.22;97004.09;4979837;28;20157;-37
2021/05/31 09:25:31;;;;;;;6.18;1.52;;;;;;;27.41;23.34;97002.22;4981877;28;21128;-36
2021/05/31 09:27:58;;;;;;;3.95;1.80;;;;;;;27.41;23.46;96992.53;4978088;28;20026;-39
2021/05/31 09:30:40;;;;;;;7.05;1.65;;;;;;;27.44;23.55;96992.38;4982770;28;20037;-35
2021/05/31 09:33:10;;;;;;;;;;;;;;;27.45;23.63;96983.53;4993773;28;20692;-36
2021/05/31 09:35:38;;;;;;;5.78;2.00;;;;;;;27.47;23.72;96986.09;4996625;28;20870;-35
2021/05/31 09:38:03;;;;;;;4.45;1.90;;;;;;;27.48;23.74;96988.63;4977619;28;20025;-36
2021/05/31 09:40:29;;;;;;;5.15;2.00;;;;;;;27.48;23.81;96990.41;4973955;28;20046;-33
2021/05/31 09:42:56;;;;;;;16.45;1.98;;;;;;;27.51;24.10;96992.88;4972653;28;21782;-33
2021/05/31 09:45:21;;;;;;;5.85;2.10;;;;;;;27.51;24.06;96982.34;4975985;28;20113;-39
2021/05/31 09:47:47;;;;;;;3.00;1.73;;;;;;;27.52;24.24;96981.41;4973945;28;20100;-35
2021/05/31 09:50:20;;;;;;;14.13;2.08;;;;;;;27.47;24.39;96980.81;4975152;28;20203;-40
2021/05/31 09:52:46;;;;;;;8.60;1.83;;;;;;;27.56;24.42;96988.19;4971080;28;20587;-35
2021/05/31 09:55:11;;;;;;;4.57;2.10;;;;;;;27.57;24.56;96986.41;4974308;28;20034;-36
2021/05/31 09:57:37;;;;;;;5.20;1.90;;;;;;;27.58;24.58;96998.63;4977431;28;20037;-35
2021/05/31 10:00:14;;;;;;;5.88;1.80;;;;;;;27.58;24.44;96988.09;4974114;28;20522;-33
2021/05/31 10:05:41;;;;;;;4.30;2.10;;;;;;;27.60;24.67;96981.81;4974606;28;20022;-38
2021/05/31 10:10:37;;;;;;;2.83;1.80;;;;;;;27.62;24.92;96985.22;4975280;28;20034;-38
2021/05/31 10:13:02;;;;;;;3.63;1.90;;;;;;;27.62;24.91;96974.69;4978052;28;20600;-35
2021/05/31 10:15:35;;;;;;;4.25;1.75;;;;;;;27.64;25.10;96982.50;4977084;28;20082;-38
2021/05/31 10:18:01;;;;;;;3.40;1.48;;;;;;;27.63;24.99;96981.69;4977782;28;20073;-37
2021/05/31 10:20:27;;;;;;;4.15;1.85;;;;;;;27.64;25.00;96980.72;4978179;28;20025;-36
2021/05/31 10:22:53;;;;;;;2.45;1.25;;;;;;;27.64;25.08;96972.84;4980510;28;20120;-39
2021/05/31 10:25:18;;;;;;;3.42;1.50;;;;;;;27.67;25.31;96970.94;4977384;28;20025;-39
2021/05/31 10:27:44;;;;;;;2.22;1.42;;;;;;;27.68;25.34;96975.28;4956554;28;20882;-39
2021/05/31 10:30:12;;;;;;;4.00;1.42;;;;;;;27.69;25.20;96975.19;4976595;28;20033;-36
2021/05/31 10:32:38;;;;;;;2.97;1.65;;;;;;;27.68;25.38;96973.50;4976053;28;20400;-33
2021/05/31 10:35:13;;;;;;;2.38;1.40;;;;;;;27.70;25.34;96973.41;4975830;28;20037;-36
2021/05/31 10:37:39;;;;;;;3.17;1.67;;;;;;;27.71;25.45;96972.47;4975462;28;20068;-39
2021/05/31 10:40:06;;;;;;;3.28;1.40;;;;;;;27.71;25.60;96975.97;4973993;28;20460;-41
2021/05/31 10:43:04;;;;;;;3.55;1.63;;;;;;;27.73;25.63;96971.44;4971925;28;20041;-34
2021/05/31 10:45:31;;;;;;;2.70;1.50;;;;;;;27.75;25.45;96976.63;4961785;28;20038;-35
2021/05/31 10:48:18;;;;;;;6.97;1.88;;;;;;;27.75;25.59;96971.34;4977126;28;20131;-36
2021/05/31 10:50:58;;;;;;;4.60;1.65;;;;;;;27.76;25.60;96971.25;4971555;28;20461;-34
2021/05/31 10:53:31;;;;;;;2.72;1.50;;;;;;;27.78;25.65;96973.81;4975715;28;20034;-32
2021/05/31 10:56:07;;;;;;;3.72;1.45;;;;;;;27.79;25.73;96964.97;4978892;28;20025;-38
2021/05/31 10:58:47;;;;;;;3.17;1.50;;;;;;;27.79;25.65;96964.97;4971713;28;20101;-36
2021/05/31 11:01:25;;;;;;;9.10;1.70;;;;;;;27.80;25.66;96960.56;4973172;28;20054;-33
2021/05/31 11:03:52;;;;;;;8.40;1.58;;;;;;;27.80;25.72;96971.09;4976021;28;20030;-37
2021/05/31 11:06:22;;;;;;;3.17;1.45;;;;;;;27.80;25.08;96966.66;4974659;28;20065;-33
2021/05/31 11:08:48;;;;;;;5.05;1.60;;;;;;;27.81;24.89;96973.63;4974769;28;20030;-34
2021/05/31 11:11:29;;;;;;;6.45;1.42;;;;;;;27.81;24.72;96963.09;4976691;28;20033;-35
2021/05/31 11:13:55;;;;;;;7.93;1.85;;;;;;;27.81;24.43;96965.75;4974802;28;20083;-36
2021/05/31 11:16:23;;;;;;;12.02;1.58;;;;;;;27.83;24.14;96970.88;4971634;28;20456;-38
2021/05/31 11:18:52;;;;;;;2.83;1.52;;;;;;;27.84;23.90;96983.16;4974275;28;20472;-37
2021/05/31 11:21:26;;;;;;;4.85;1.40;;;;;;;27.82;23.35;96970.06;4985265;28;20030;-36
2021/05/31 11:23:59;;;;;;;4.72;1.48;;;;;;;27.83;23.06;96971.75;4972186;28;20041;-37
2021/05/31 11:26:36;;;;;;;4.80;1.75;;;;;;;27.84;22.82;96972.59;4971175;28;20329;-35
2021/05/31 11:29:02;;;;;;;3.60;1.55;;;;;;;27.83;22.60;96966.47;4978336;28;21285;-37
2021/05/31 11:31:28;;;;;;;3.90;1.52;;;;;;;27.83;22.46;96970.88;4968399;28;20053;-39
2021/05/31 11:33:54;;;;;;;2.67;1.50;;;;;;;27.82;22.45;96963.94;4973405;28;20029;-33
2021/05/31 11:36:29;;;;;;;8.10;2.25;;;;;;;27.81;22.36;96968.38;4974392;28;20120;-34
2021/05/31 11:38:55;;;;;;;10.30;2.70;;;;;;;27.81;22.46;96973.63;4972551;28;20038;-36
2021/05/31 11:41:38;;;;;;;4.47;1.73;;;;;;;27.82;22.30;96966.56;4970580;28;21084;-39
2021/05/31 11:44:07;;;;;;;5.28;1.52;;;;;;;27.81;21.97;96960.47;4971867;28;20038;-32
2021/05/31 11:46:44;;;;;;;6.40;1.50;;;;;;;27.80;21.74;96961.38;4969724;28;20769;-32
2021/05/31 11:49:09;;;;;;;2.85;1.45;;;;;;;27.79;22.05;96957.06;4973441;28;20824;-36